sensor_id;sensor_type;location;lat;lon;timestamp;temperature;humidity
29501;DHT22;16450;50.288;10.966;2023-07-13T00:00:50;23.30;50.20
29501;DHT22;16450;50.288;10.966;2023-07-13T00:03:52;23.30;50.30
29501;DHT22;16450;50.288;10.966;2023-07-13T00:06:54;23.20;50.40
29501;DHT22;16450;50.288;10.966;2023-07-13T00:09:56;23.20;50.70
29501;DHT22;16450;50.288;10.966;2023-07-13T00:12:58;23.20;50.80
29501;DHT22;16450;50.288;10.966;2023-07-13T00:16:00;23.10;50.80
29501;DHT22;16450;50.288;10.966;2023-07-13T00:19:02;23.10;50.70
29501;DHT22;16450;50.288;10.966;2023-07-13T00:22:04;23.10;50.80
29501;DHT22;16450;50.288;10.966;2023-07-13T00:25:07;23.10;50.80
29501;DHT22;16450;50.288;10.966;2023-07-13T00:28:10;23.10;51.00
29501;DHT22;16450;50.288;10.966;2023-07-13T00:31:13;23.00;51.00
29501;DHT22;16450;50.288;10.966;2023-07-13T00:34:16;23.00;50.90
29501;DHT22;16450;50.288;10.966;2023-07-13T00:37:18;22.90;50.80
29501;DHT22;16450;50.288;10.966;2023-07-13T00:40:21;22.90;50.70
29501;DHT22;16450;50.288;10.966;2023-07-13T00:43:25;22.80;50.80
29501;DHT22;16450;50.288;10.966;2023-07-13T00:46:29;22.70;51.00
29501;DHT22;16450;50.288;10.966;2023-07-13T00:49:33;22.60;51.00
29501;DHT22;16450;50.288;10.966;2023-07-13T00:52:39;22.50;51.10
29501;DHT22;16450;50.288;10.966;2023-07-13T00:55:42;22.40;51.20
29501;DHT22;16450;50.288;10.966;2023-07-13T00:58:45;22.30;51.10
29501;DHT22;16450;50.288;10.966;2023-07-13T01:01:47;22.20;51.50
29501;DHT22;16450;50.288;10.966;2023-07-13T01:04:49;22.10;51.70
29501;DHT22;16450;50.288;10.966;2023-07-13T01:07:52;22.00;51.80
29501;DHT22;16450;50.288;10.966;2023-07-13T01:10:56;21.90;51.90
29501;DHT22;16450;50.288;10.966;2023-07-13T01:13:58;21.80;52.10
29501;DHT22;16450;50.288;10.966;2023-07-13T01:17:00;21.70;52.10
29501;DHT22;16450;50.288;10.966;2023-07-13T01:20:02;21.60;52.50
29501;DHT22;16450;50.288;10.966;2023-07-13T01:23:09;21.50;52.50
29501;DHT22;16450;50.288;10.966;2023-07-13T01:26:11;21.50;53.30
29501;DHT22;16450;50.288;10.966;2023-07-13T01:29:14;21.50;53.20
29501;DHT22;16450;50.288;10.966;2023-07-13T01:32:23;21.40;53.30
29501;DHT22;16450;50.288;10.966;2023-07-13T01:35:27;21.40;53.60
29501;DHT22;16450;50.288;10.966;2023-07-13T01:38:29;21.30;53.40
29501;DHT22;16450;50.288;10.966;2023-07-13T01:41:31;21.30;53.50
29501;DHT22;16450;50.288;10.966;2023-07-13T01:44:33;21.30;53.60
29501;DHT22;16450;50.288;10.966;2023-07-13T01:47:34;21.30;53.60
29501;DHT22;16450;50.288;10.966;2023-07-13T01:50:36;21.20;53.60
29501;DHT22;16450;50.288;10.966;2023-07-13T01:53:39;21.20;53.80
29501;DHT22;16450;50.288;10.966;2023-07-13T01:56:40;21.20;54.20
29501;DHT22;16450;50.288;10.966;2023-07-13T01:59:43;21.20;55.00
29501;DHT22;16450;50.288;10.966;2023-07-13T02:02:45;21.10;54.30
29501;DHT22;16450;50.288;10.966;2023-07-13T02:05:47;21.20;54.50
29501;DHT22;16450;50.288;10.966;2023-07-13T02:08:49;21.10;54.50
29501;DHT22;16450;50.288;10.966;2023-07-13T02:11:50;21.20;54.40
29501;DHT22;16450;50.288;10.966;2023-07-13T02:14:53;21.20;54.50
29501;DHT22;16450;50.288;10.966;2023-07-13T02:17:54;21.10;54.60
29501;DHT22;16450;50.288;10.966;2023-07-13T02:20:57;21.10;54.60
29501;DHT22;16450;50.288;10.966;2023-07-13T02:23:59;21.10;54.50
29501;DHT22;16450;50.288;10.966;2023-07-13T02:27:01;21.10;54.50
29501;DHT22;16450;50.288;10.966;2023-07-13T02:30:04;21.00;54.40
29501;DHT22;16450;50.288;10.966;2023-07-13T02:33:06;21.00;54.30
29501;DHT22;16450;50.288;10.966;2023-07-13T02:36:08;20.90;54.20
29501;DHT22;16450;50.288;10.966;2023-07-13T02:39:12;20.80;54.20
29501;DHT22;16450;50.288;10.966;2023-07-13T02:42:14;20.70;54.10
29501;DHT22;16450;50.288;10.966;2023-07-13T02:45:16;20.60;54.10
29501;DHT22;16450;50.288;10.966;2023-07-13T02:48:18;20.50;54.20
29501;DHT22;16450;50.288;10.966;2023-07-13T02:51:20;20.40;54.20
29501;DHT22;16450;50.288;10.966;2023-07-13T02:54:22;20.30;54.40
29501;DHT22;16450;50.288;10.966;2023-07-13T02:57:24;20.30;54.50
29501;DHT22;16450;50.288;10.966;2023-07-13T03:00:25;20.20;54.50
29501;DHT22;16450;50.288;10.966;2023-07-13T03:03:27;20.10;54.50
29501;DHT22;16450;50.288;10.966;2023-07-13T03:06:31;20.00;54.60
29501;DHT22;16450;50.288;10.966;2023-07-13T03:09:34;20.00;54.70
29501;DHT22;16450;50.288;10.966;2023-07-13T03:12:36;19.90;54.70
29501;DHT22;16450;50.288;10.966;2023-07-13T03:15:38;19.80;54.80
29501;DHT22;16450;50.288;10.966;2023-07-13T03:18:40;19.70;54.90
29501;DHT22;16450;50.288;10.966;2023-07-13T03:21:41;19.70;55.00
29501;DHT22;16450;50.288;10.966;2023-07-13T03:24:44;19.60;55.20
29501;DHT22;16450;50.288;10.966;2023-07-13T03:27:46;19.50;55.30
29501;DHT22;16450;50.288;10.966;2023-07-13T03:30:48;19.50;55.40
29501;DHT22;16450;50.288;10.966;2023-07-13T03:33:50;19.30;55.40
29501;DHT22;16450;50.288;10.966;2023-07-13T03:36:54;19.30;55.70
29501;DHT22;16450;50.288;10.966;2023-07-13T03:39:56;19.20;55.80
29501;DHT22;16450;50.288;10.966;2023-07-13T03:42:58;19.10;55.70
29501;DHT22;16450;50.288;10.966;2023-07-13T03:46:00;19.00;56.00
29501;DHT22;16450;50.288;10.966;2023-07-13T03:49:04;19.00;56.10
29501;DHT22;16450;50.288;10.966;2023-07-13T03:52:06;18.90;56.40
29501;DHT22;16450;50.288;10.966;2023-07-13T03:55:08;18.90;56.50
29501;DHT22;16450;50.288;10.966;2023-07-13T04:01:35;18.70;57.60
29501;DHT22;16450;50.288;10.966;2023-07-13T04:04:37;18.70;56.90
29501;DHT22;16450;50.288;10.966;2023-07-13T04:07:42;18.70;57.00
29501;DHT22;16450;50.288;10.966;2023-07-13T04:10:44;18.60;57.20
29501;DHT22;16450;50.288;10.966;2023-07-13T04:13:46;18.70;57.40
29501;DHT22;16450;50.288;10.966;2023-07-13T04:16:48;18.70;57.50
29501;DHT22;16450;50.288;10.966;2023-07-13T04:19:50;18.70;57.50
29501;DHT22;16450;50.288;10.966;2023-07-13T04:22:52;18.70;57.50
29501;DHT22;16450;50.288;10.966;2023-07-13T04:25:55;18.70;57.70
29501;DHT22;16450;50.288;10.966;2023-07-13T04:28:57;18.70;57.70
29501;DHT22;16450;50.288;10.966;2023-07-13T04:31:59;18.70;57.80
29501;DHT22;16450;50.288;10.966;2023-07-13T04:35:01;18.70;57.80
29501;DHT22;16450;50.288;10.966;2023-07-13T04:38:04;18.70;57.90
29501;DHT22;16450;50.288;10.966;2023-07-13T04:41:08;18.60;57.80
29501;DHT22;16450;50.288;10.966;2023-07-13T04:44:10;18.60;58.20
29501;DHT22;16450;50.288;10.966;2023-07-13T04:47:13;18.60;58.10
29501;DHT22;16450;50.288;10.966;2023-07-13T04:50:15;18.60;58.20
29501;DHT22;16450;50.288;10.966;2023-07-13T04:53:21;18.60;58.30
29501;DHT22;16450;50.288;10.966;2023-07-13T04:56:23;18.60;58.30
29501;DHT22;16450;50.288;10.966;2023-07-13T04:59:25;18.70;58.40
29501;DHT22;16450;50.288;10.966;2023-07-13T05:02:27;18.70;59.10
29501;DHT22;16450;50.288;10.966;2023-07-13T05:05:30;18.70;59.00
29501;DHT22;16450;50.288;10.966;2023-07-13T05:08:33;18.70;59.10
29501;DHT22;16450;50.288;10.966;2023-07-13T05:11:35;18.80;59.40
29501;DHT22;16450;50.288;10.966;2023-07-13T05:14:37;18.90;59.80
29501;DHT22;16450;50.288;10.966;2023-07-13T05:17:39;19.10;59.80
29501;DHT22;16450;50.288;10.966;2023-07-13T05:20:42;19.20;59.80
29501;DHT22;16450;50.288;10.966;2023-07-13T05:23:44;19.30;59.60
29501;DHT22;16450;50.288;10.966;2023-07-13T05:26:45;19.50;59.70
29501;DHT22;16450;50.288;10.966;2023-07-13T05:29:48;19.60;59.50
29501;DHT22;16450;50.288;10.966;2023-07-13T05:32:50;19.80;59.60
29501;DHT22;16450;50.288;10.966;2023-07-13T05:35:51;20.00;59.60
29501;DHT22;16450;50.288;10.966;2023-07-13T05:38:54;20.20;59.10
29501;DHT22;16450;50.288;10.966;2023-07-13T05:41:56;20.30;58.50
29501;DHT22;16450;50.288;10.966;2023-07-13T05:44:58;20.30;58.00
29501;DHT22;16450;50.288;10.966;2023-07-13T05:48:00;20.40;57.80
29501;DHT22;16450;50.288;10.966;2023-07-13T05:51:05;20.50;57.80
29501;DHT22;16450;50.288;10.966;2023-07-13T05:54:06;20.50;57.60
29501;DHT22;16450;50.288;10.966;2023-07-13T05:57:08;20.50;57.50
29501;DHT22;16450;50.288;10.966;2023-07-13T06:00:11;20.50;57.30
29501;DHT22;16450;50.288;10.966;2023-07-13T06:03:13;20.60;57.70
29501;DHT22;16450;50.288;10.966;2023-07-13T06:06:16;20.60;57.80
29501;DHT22;16450;50.288;10.966;2023-07-13T06:09:18;20.80;58.00
29501;DHT22;16450;50.288;10.966;2023-07-13T06:12:21;21.00;57.50
29501;DHT22;16450;50.288;10.966;2023-07-13T06:15:23;21.10;57.30
29501;DHT22;16450;50.288;10.966;2023-07-13T06:18:25;21.30;57.80
29501;DHT22;16450;50.288;10.966;2023-07-13T06:21:27;21.50;58.40
29501;DHT22;16450;50.288;10.966;2023-07-13T06:24:29;21.90;59.10
29501;DHT22;16450;50.288;10.966;2023-07-13T06:27:31;22.40;59.30
29501;DHT22;16450;50.288;10.966;2023-07-13T06:30:33;23.00;59.40
29501;DHT22;16450;50.288;10.966;2023-07-13T06:33:35;23.70;58.80
29501;DHT22;16450;50.288;10.966;2023-07-13T06:36:37;24.20;57.50
29501;DHT22;16450;50.288;10.966;2023-07-13T06:39:40;24.60;55.40
29501;DHT22;16450;50.288;10.966;2023-07-13T06:42:42;24.90;53.90
29501;DHT22;16450;50.288;10.966;2023-07-13T06:45:45;25.00;52.90
29501;DHT22;16450;50.288;10.966;2023-07-13T06:48:49;25.10;52.50
29501;DHT22;16450;50.288;10.966;2023-07-13T06:51:51;25.30;52.60
29501;DHT22;16450;50.288;10.966;2023-07-13T06:54:53;25.50;52.20
29501;DHT22;16450;50.288;10.966;2023-07-13T06:57:55;25.60;51.20
29501;DHT22;16450;50.288;10.966;2023-07-13T07:00:59;25.60;50.60
29501;DHT22;16450;50.288;10.966;2023-07-13T07:04:02;25.50;50.10
29501;DHT22;16450;50.288;10.966;2023-07-13T07:07:04;25.40;50.20
29501;DHT22;16450;50.288;10.966;2023-07-13T07:10:07;25.20;50.70
29501;DHT22;16450;50.288;10.966;2023-07-13T07:13:09;25.20;50.80
29501;DHT22;16450;50.288;10.966;2023-07-13T07:16:11;25.20;50.50
29501;DHT22;16450;50.288;10.966;2023-07-13T07:19:13;25.00;49.90
29501;DHT22;16450;50.288;10.966;2023-07-13T07:22:15;25.00;50.30
29501;DHT22;16450;50.288;10.966;2023-07-13T07:25:19;25.00;51.30
29501;DHT22;16450;50.288;10.966;2023-07-13T07:28:21;25.20;51.90
29501;DHT22;16450;50.288;10.966;2023-07-13T07:31:26;25.50;51.40
29501;DHT22;16450;50.288;10.966;2023-07-13T07:34:31;25.70;50.90
29501;DHT22;16450;50.288;10.966;2023-07-13T07:37:33;26.00;51.00
29501;DHT22;16450;50.288;10.966;2023-07-13T07:40:39;26.40;50.10
29501;DHT22;16450;50.288;10.966;2023-07-13T07:43:45;26.60;48.80
29501;DHT22;16450;50.288;10.966;2023-07-13T07:46:46;26.80;48.60
29501;DHT22;16450;50.288;10.966;2023-07-13T07:49:48;27.00;48.30
29501;DHT22;16450;50.288;10.966;2023-07-13T07:52:51;27.10;47.80
29501;DHT22;16450;50.288;10.966;2023-07-13T07:55:54;27.30;46.80
29501;DHT22;16450;50.288;10.966;2023-07-13T07:58:58;27.50;46.40
29501;DHT22;16450;50.288;10.966;2023-07-13T08:02:04;27.70;46.70
29501;DHT22;16450;50.288;10.966;2023-07-13T08:05:09;27.90;45.80
29501;DHT22;16450;50.288;10.966;2023-07-13T08:08:14;28.10;44.90
29501;DHT22;16450;50.288;10.966;2023-07-13T08:11:15;28.20;45.00
29501;DHT22;16450;50.288;10.966;2023-07-13T08:14:20;28.40;44.90
29501;DHT22;16450;50.288;10.966;2023-07-13T08:17:23;28.60;44.30
29501;DHT22;16450;50.288;10.966;2023-07-13T08:20:25;28.80;43.00
29501;DHT22;16450;50.288;10.966;2023-07-13T08:23:27;28.90;42.50
29501;DHT22;16450;50.288;10.966;2023-07-13T08:26:29;28.90;42.20
29501;DHT22;16450;50.288;10.966;2023-07-13T08:29:30;28.90;42.10
29501;DHT22;16450;50.288;10.966;2023-07-13T08:32:36;28.90;42.70
29501;DHT22;16450;50.288;10.966;2023-07-13T08:35:38;29.00;42.30
29501;DHT22;16450;50.288;10.966;2023-07-13T08:38:40;29.10;40.90
29501;DHT22;16450;50.288;10.966;2023-07-13T08:41:45;29.00;39.90
29501;DHT22;16450;50.288;10.966;2023-07-13T08:45:01;28.70;38.60
29501;DHT22;16450;50.288;10.966;2023-07-13T08:54:40;28.00;39.60
29501;DHT22;16450;50.288;10.966;2023-07-13T08:57:46;28.00;38.80
29501;DHT22;16450;50.288;10.966;2023-07-13T09:00:55;28.10;38.80
29501;DHT22;16450;50.288;10.966;2023-07-13T09:04:11;28.30;38.00
29501;DHT22;16450;50.288;10.966;2023-07-13T09:10:43;28.50;36.70
29501;DHT22;16450;50.288;10.966;2023-07-13T09:17:22;28.70;36.50
29501;DHT22;16450;50.288;10.966;2023-07-13T09:20:34;28.80;36.80
29501;DHT22;16450;50.288;10.966;2023-07-13T09:23:37;29.00;36.00
29501;DHT22;16450;50.288;10.966;2023-07-13T09:26:39;29.00;36.70
29501;DHT22;16450;50.288;10.966;2023-07-13T09:29:43;29.20;37.00
29501;DHT22;16450;50.288;10.966;2023-07-13T09:32:51;29.30;36.20
29501;DHT22;16450;50.288;10.966;2023-07-13T09:35:53;29.40;35.80
29501;DHT22;16450;50.288;10.966;2023-07-13T09:42:16;29.70;34.10
29501;DHT22;16450;50.288;10.966;2023-07-13T09:45:29;29.70;35.00
29501;DHT22;16450;50.288;10.966;2023-07-13T09:48:35;29.70;32.60
29501;DHT22;16450;50.288;10.966;2023-07-13T09:51:41;29.70;33.70
29501;DHT22;16450;50.288;10.966;2023-07-13T09:54:51;29.70;33.80
29501;DHT22;16450;50.288;10.966;2023-07-13T09:57:55;29.70;33.50
29501;DHT22;16450;50.288;10.966;2023-07-13T10:01:02;29.70;33.90
29501;DHT22;16450;50.288;10.966;2023-07-13T10:04:12;29.70;34.00
29501;DHT22;16450;50.288;10.966;2023-07-13T10:07:16;29.70;34.00
29501;DHT22;16450;50.288;10.966;2023-07-13T10:10:30;29.70;34.20
29501;DHT22;16450;50.288;10.966;2023-07-13T10:13:35;29.70;34.10
29501;DHT22;16450;50.288;10.966;2023-07-13T10:16:39;29.70;33.90
29501;DHT22;16450;50.288;10.966;2023-07-13T10:19:47;29.70;34.10
29501;DHT22;16450;50.288;10.966;2023-07-13T10:23:02;29.70;33.80
29501;DHT22;16450;50.288;10.966;2023-07-13T10:26:12;29.70;33.80
29501;DHT22;16450;50.288;10.966;2023-07-13T10:29:16;29.70;33.70
29501;DHT22;16450;50.288;10.966;2023-07-13T10:32:22;29.70;34.50
29501;DHT22;16450;50.288;10.966;2023-07-13T10:35:27;29.80;34.20
29501;DHT22;16450;50.288;10.966;2023-07-13T10:38:30;29.80;33.90
29501;DHT22;16450;50.288;10.966;2023-07-13T10:41:39;29.70;33.80
29501;DHT22;16450;50.288;10.966;2023-07-13T10:44:42;29.80;33.90
29501;DHT22;16450;50.288;10.966;2023-07-13T10:47:45;29.80;34.00
29501;DHT22;16450;50.288;10.966;2023-07-13T10:50:50;29.80;34.10
29501;DHT22;16450;50.288;10.966;2023-07-13T10:54:17;29.80;33.90
29501;DHT22;16450;50.288;10.966;2023-07-13T10:57:22;29.80;33.40
29501;DHT22;16450;50.288;10.966;2023-07-13T11:00:23;29.80;33.90
29501;DHT22;16450;50.288;10.966;2023-07-13T11:03:27;29.80;33.60
29501;DHT22;16450;50.288;10.966;2023-07-13T11:06:37;29.80;33.70
29501;DHT22;16450;50.288;10.966;2023-07-13T11:09:41;29.70;32.80
29501;DHT22;16450;50.288;10.966;2023-07-13T11:12:51;29.60;33.10
29501;DHT22;16450;50.288;10.966;2023-07-13T11:15:53;29.50;32.60
29501;DHT22;16450;50.288;10.966;2023-07-13T11:28:31;29.10;33.10
29501;DHT22;16450;50.288;10.966;2023-07-13T11:31:34;29.00;33.40
29501;DHT22;16450;50.288;10.966;2023-07-13T11:34:38;28.80;33.30
29501;DHT22;16450;50.288;10.966;2023-07-13T11:37:40;28.70;34.20
29501;DHT22;16450;50.288;10.966;2023-07-13T11:40:45;28.70;34.10
29501;DHT22;16450;50.288;10.966;2023-07-13T11:44:06;28.50;33.70
29501;DHT22;16450;50.288;10.966;2023-07-13T11:47:17;28.40;33.90
29501;DHT22;16450;50.288;10.966;2023-07-13T11:50:24;28.30;33.90
29501;DHT22;16450;50.288;10.966;2023-07-13T11:53:28;28.20;34.10
29501;DHT22;16450;50.288;10.966;2023-07-13T11:56:30;28.10;34.20
29501;DHT22;16450;50.288;10.966;2023-07-13T11:59:39;28.10;34.00
29501;DHT22;16450;50.288;10.966;2023-07-13T12:02:44;28.20;34.20
29501;DHT22;16450;50.288;10.966;2023-07-13T12:06:04;28.30;34.60
29501;DHT22;16450;50.288;10.966;2023-07-13T12:09:14;28.40;34.70
29501;DHT22;16450;50.288;10.966;2023-07-13T12:12:19;28.40;34.10
29501;DHT22;16450;50.288;10.966;2023-07-13T12:15:22;28.40;34.00
29501;DHT22;16450;50.288;10.966;2023-07-13T12:18:30;28.30;33.80
29501;DHT22;16450;50.288;10.966;2023-07-13T12:21:37;28.30;34.20
29501;DHT22;16450;50.288;10.966;2023-07-13T12:24:40;28.20;34.10
29501;DHT22;16450;50.288;10.966;2023-07-13T12:27:47;28.20;34.80
29501;DHT22;16450;50.288;10.966;2023-07-13T12:30:58;28.20;34.40
29501;DHT22;16450;50.288;10.966;2023-07-13T12:34:16;28.30;34.00
29501;DHT22;16450;50.288;10.966;2023-07-13T12:37:18;28.40;34.50
29501;DHT22;16450;50.288;10.966;2023-07-13T12:40:21;28.60;34.70
29501;DHT22;16450;50.288;10.966;2023-07-13T12:43:33;28.70;34.90
29501;DHT22;16450;50.288;10.966;2023-07-13T12:46:39;28.90;34.60
29501;DHT22;16450;50.288;10.966;2023-07-13T12:49:49;29.00;34.20
29501;DHT22;16450;50.288;10.966;2023-07-13T12:52:54;29.20;33.70
29501;DHT22;16450;50.288;10.966;2023-07-13T12:56:02;29.30;33.70
29501;DHT22;16450;50.288;10.966;2023-07-13T12:59:05;29.30;33.40
29501;DHT22;16450;50.288;10.966;2023-07-13T13:02:30;29.30;33.40
29501;DHT22;16450;50.288;10.966;2023-07-13T13:05:33;29.30;33.20
29501;DHT22;16450;50.288;10.966;2023-07-13T13:08:35;29.30;33.20
29501;DHT22;16450;50.288;10.966;2023-07-13T13:11:38;29.20;33.10
29501;DHT22;16450;50.288;10.966;2023-07-13T13:14:41;29.20;33.60
29501;DHT22;16450;50.288;10.966;2023-07-13T13:17:43;29.20;33.70
29501;DHT22;16450;50.288;10.966;2023-07-13T13:20:46;29.20;33.80
29501;DHT22;16450;50.288;10.966;2023-07-13T13:23:48;29.10;33.50
29501;DHT22;16450;50.288;10.966;2023-07-13T13:26:51;29.10;33.80
29501;DHT22;16450;50.288;10.966;2023-07-13T13:29:54;29.10;33.50
29501;DHT22;16450;50.288;10.966;2023-07-13T13:32:56;29.20;33.90
29501;DHT22;16450;50.288;10.966;2023-07-13T13:35:58;29.20;34.10
29501;DHT22;16450;50.288;10.966;2023-07-13T13:39:00;29.40;34.30
29501;DHT22;16450;50.288;10.966;2023-07-13T13:42:03;29.50;33.90
29501;DHT22;16450;50.288;10.966;2023-07-13T13:45:11;29.70;33.20
29501;DHT22;16450;50.288;10.966;2023-07-13T13:48:34;29.70;33.10
29501;DHT22;16450;50.288;10.966;2023-07-13T13:51:37;29.50;32.80
29501;DHT22;16450;50.288;10.966;2023-07-13T13:54:39;29.50;33.20
29501;DHT22;16450;50.288;10.966;2023-07-13T13:57:42;29.40;33.10
29501;DHT22;16450;50.288;10.966;2023-07-13T14:00:45;29.30;32.90
29501;DHT22;16450;50.288;10.966;2023-07-13T14:03:50;29.20;33.00
29501;DHT22;16450;50.288;10.966;2023-07-13T14:06:55;29.00;33.20
29501;DHT22;16450;50.288;10.966;2023-07-13T14:09:58;28.90;33.00
29501;DHT22;16450;50.288;10.966;2023-07-13T14:13:01;28.70;33.20
29501;DHT22;16450;50.288;10.966;2023-07-13T14:16:11;28.70;33.40
29501;DHT22;16450;50.288;10.966;2023-07-13T14:19:15;28.60;33.30
29501;DHT22;16450;50.288;10.966;2023-07-13T14:22:17;28.50;34.20
29501;DHT22;16450;50.288;10.966;2023-07-13T14:25:20;28.60;34.40
29501;DHT22;16450;50.288;10.966;2023-07-13T14:28:25;28.70;34.60
29501;DHT22;16450;50.288;10.966;2023-07-13T14:31:27;28.90;34.20
29501;DHT22;16450;50.288;10.966;2023-07-13T14:34:32;29.00;33.90
29501;DHT22;16450;50.288;10.966;2023-07-13T14:37:35;29.20;33.80
29501;DHT22;16450;50.288;10.966;2023-07-13T14:40:37;29.20;33.60
29501;DHT22;16450;50.288;10.966;2023-07-13T14:43:42;29.30;33.40
29501;DHT22;16450;50.288;10.966;2023-07-13T14:46:45;29.30;33.50
29501;DHT22;16450;50.288;10.966;2023-07-13T14:49:47;29.20;33.60
29501;DHT22;16450;50.288;10.966;2023-07-13T14:52:49;29.20;33.50
29501;DHT22;16450;50.288;10.966;2023-07-13T14:55:53;29.00;33.40
29501;DHT22;16450;50.288;10.966;2023-07-13T14:58:55;28.90;33.60
29501;DHT22;16450;50.288;10.966;2023-07-13T15:01:57;28.90;33.90
29501;DHT22;16450;50.288;10.966;2023-07-13T15:04:58;28.80;33.50
29501;DHT22;16450;50.288;10.966;2023-07-13T15:08:02;28.70;33.20
29501;DHT22;16450;50.288;10.966;2023-07-13T15:11:04;28.50;33.20
29501;DHT22;16450;50.288;10.966;2023-07-13T15:14:06;28.40;33.20
29501;DHT22;16450;50.288;10.966;2023-07-13T15:17:31;28.20;33.50
29501;DHT22;16450;50.288;10.966;2023-07-13T15:20:34;28.20;34.00
29501;DHT22;16450;50.288;10.966;2023-07-13T15:23:37;28.20;34.00
29501;DHT22;16450;50.288;10.966;2023-07-13T15:26:39;28.20;33.90
29501;DHT22;16450;50.288;10.966;2023-07-13T15:29:41;28.20;33.60
29501;DHT22;16450;50.288;10.966;2023-07-13T15:32:45;28.10;33.60
29501;DHT22;16450;50.288;10.966;2023-07-13T15:35:48;28.00;33.60
29501;DHT22;16450;50.288;10.966;2023-07-13T15:38:52;27.90;34.20
29501;DHT22;16450;50.288;10.966;2023-07-13T15:41:54;27.80;34.30
29501;DHT22;16450;50.288;10.966;2023-07-13T15:44:56;27.80;34.50
29501;DHT22;16450;50.288;10.966;2023-07-13T15:48:00;27.80;35.00
29501;DHT22;16450;50.288;10.966;2023-07-13T15:51:05;28.00;34.40
29501;DHT22;16450;50.288;10.966;2023-07-13T15:54:14;28.00;34.10
29501;DHT22;16450;50.288;10.966;2023-07-13T15:57:16;28.10;34.10
29501;DHT22;16450;50.288;10.966;2023-07-13T16:03:23;28.00;34.50
29501;DHT22;16450;50.288;10.966;2023-07-13T16:06:37;27.90;34.20
29501;DHT22;16450;50.288;10.966;2023-07-13T16:09:44;27.90;34.10
29501;DHT22;16450;50.288;10.966;2023-07-13T16:12:47;27.90;34.30
29501;DHT22;16450;50.288;10.966;2023-07-13T16:15:48;28.00;34.50
29501;DHT22;16450;50.288;10.966;2023-07-13T16:18:55;28.00;34.50
29501;DHT22;16450;50.288;10.966;2023-07-13T16:21:58;28.10;34.10
29501;DHT22;16450;50.288;10.966;2023-07-13T16:25:02;28.10;34.30
29501;DHT22;16450;50.288;10.966;2023-07-13T16:28:09;28.10;34.30
29501;DHT22;16450;50.288;10.966;2023-07-13T16:31:11;28.10;34.40
29501;DHT22;16450;50.288;10.966;2023-07-13T16:34:14;28.10;34.50
29501;DHT22;16450;50.288;10.966;2023-07-13T16:37:20;28.10;34.30
29501;DHT22;16450;50.288;10.966;2023-07-13T16:40:28;28.10;33.90
29501;DHT22;16450;50.288;10.966;2023-07-13T16:43:30;27.80;33.80
29501;DHT22;16450;50.288;10.966;2023-07-13T16:46:32;27.80;34.00
29501;DHT22;16450;50.288;10.966;2023-07-13T16:49:37;27.70;34.30
29501;DHT22;16450;50.288;10.966;2023-07-13T16:52:39;27.60;34.40
29501;DHT22;16450;50.288;10.966;2023-07-13T16:55:41;27.50;34.60
29501;DHT22;16450;50.288;10.966;2023-07-13T16:58:45;27.40;35.00
29501;DHT22;16450;50.288;10.966;2023-07-13T17:01:48;27.40;34.60
29501;DHT22;16450;50.288;10.966;2023-07-13T17:04:50;27.40;34.80
29501;DHT22;16450;50.288;10.966;2023-07-13T17:07:52;27.30;34.60
29501;DHT22;16450;50.288;10.966;2023-07-13T17:10:56;27.30;35.00
29501;DHT22;16450;50.288;10.966;2023-07-13T17:13:59;27.20;34.90
29501;DHT22;16450;50.288;10.966;2023-07-13T17:17:01;27.20;34.90
29501;DHT22;16450;50.288;10.966;2023-07-13T17:20:03;27.10;35.20
29501;DHT22;16450;50.288;10.966;2023-07-13T17:23:17;27.00;35.20
29501;DHT22;16450;50.288;10.966;2023-07-13T17:26:19;26.90;35.50
29501;DHT22;16450;50.288;10.966;2023-07-13T17:29:21;26.90;35.40
29501;DHT22;16450;50.288;10.966;2023-07-13T17:32:23;26.90;35.40
29501;DHT22;16450;50.288;10.966;2023-07-13T17:35:28;26.90;35.30
29501;DHT22;16450;50.288;10.966;2023-07-13T17:38:34;26.90;35.60
29501;DHT22;16450;50.288;10.966;2023-07-13T17:41:37;26.80;35.10
29501;DHT22;16450;50.288;10.966;2023-07-13T17:44:40;26.70;35.20
29501;DHT22;16450;50.288;10.966;2023-07-13T17:47:42;26.70;35.10
29501;DHT22;16450;50.288;10.966;2023-07-13T17:50:45;26.60;35.10
29501;DHT22;16450;50.288;10.966;2023-07-13T17:53:51;26.60;35.20
29501;DHT22;16450;50.288;10.966;2023-07-13T17:56:53;26.50;35.30
29501;DHT22;16450;50.288;10.966;2023-07-13T17:59:55;26.50;35.40
29501;DHT22;16450;50.288;10.966;2023-07-13T18:03:00;26.40;35.50
29501;DHT22;16450;50.288;10.966;2023-07-13T18:06:03;26.30;35.70
29501;DHT22;16450;50.288;10.966;2023-07-13T18:09:32;26.20;35.60
29501;DHT22;16450;50.288;10.966;2023-07-13T18:12:34;26.10;35.90
29501;DHT22;16450;50.288;10.966;2023-07-13T18:15:36;26.00;35.80
29501;DHT22;16450;50.288;10.966;2023-07-13T18:18:40;25.90;36.00
29501;DHT22;16450;50.288;10.966;2023-07-13T18:21:41;25.70;36.20
29501;DHT22;16450;50.288;10.966;2023-07-13T18:24:44;25.60;36.40
29501;DHT22;16450;50.288;10.966;2023-07-13T18:27:46;25.50;36.70
29501;DHT22;16450;50.288;10.966;2023-07-13T18:30:52;25.40;36.80
29501;DHT22;16450;50.288;10.966;2023-07-13T18:33:55;25.40;37.20
29501;DHT22;16450;50.288;10.966;2023-07-13T18:36:57;25.30;37.10
29501;DHT22;16450;50.288;10.966;2023-07-13T18:39:59;25.20;37.40
29501;DHT22;16450;50.288;10.966;2023-07-13T18:43:02;25.10;37.30
29501;DHT22;16450;50.288;10.966;2023-07-13T18:46:22;25.10;37.70
29501;DHT22;16450;50.288;10.966;2023-07-13T18:49:25;25.00;38.20
29501;DHT22;16450;50.288;10.966;2023-07-13T18:52:27;24.90;37.80
29501;DHT22;16450;50.288;10.966;2023-07-13T18:55:29;24.80;38.10
29501;DHT22;16450;50.288;10.966;2023-07-13T18:58:31;24.70;38.20
29501;DHT22;16450;50.288;10.966;2023-07-13T19:01:36;24.70;39.10
29501;DHT22;16450;50.288;10.966;2023-07-13T19:04:38;24.60;38.60
29501;DHT22;16450;50.288;10.966;2023-07-13T19:07:40;24.50;38.70
29501;DHT22;16450;50.288;10.966;2023-07-13T19:10:44;24.50;39.00
29501;DHT22;16450;50.288;10.966;2023-07-13T19:13:46;24.40;39.30
29501;DHT22;16450;50.288;10.966;2023-07-13T19:16:53;24.30;39.40
29501;DHT22;16450;50.288;10.966;2023-07-13T19:19:55;24.10;39.40
29501;DHT22;16450;50.288;10.966;2023-07-13T19:23:01;24.10;39.60
29501;DHT22;16450;50.288;10.966;2023-07-13T19:26:13;23.90;39.80
29501;DHT22;16450;50.288;10.966;2023-07-13T19:29:21;23.80;39.80
29501;DHT22;16450;50.288;10.966;2023-07-13T19:32:23;23.70;40.00
29501;DHT22;16450;50.288;10.966;2023-07-13T19:35:25;23.60;40.00